Time;durP1;ratioP1;P1;durP2;ratioP2;P2;SDS_P1;SDS_P2;PMS_P1;PMS_P2;Temp;Humidity;BMP_temperature;BMP_pressure;BME280_temperature;BME280_humidity;BME280_pressure;Samples;Min_cycle;Max_cycle;Signal;HPM_P1;HPM_P2
2021/08/03 00:01:34;;;;;;;3.55;1.70;;;;;;;23.22;61.29;100248.81;5113684;28;20027;-75
2021/08/03 00:04:10;;;;;;;3.70;1.92;;;;;;;23.26;60.58;100258.00;5114961;28;20027;-75
2021/08/03 00:06:49;;;;;;;6.72;2.10;;;;;;;23.27;60.30;100261.63;5113630;28;20024;-75
2021/08/03 00:09:22;;;;;;;3.13;1.88;;;;;;;23.18;60.75;100261.50;5113880;28;20464;-75
2021/08/03 00:11:48;;;;;;;;;;;;;;;23.08;60.61;100229.34;5116192;28;20032;-75
2021/08/03 00:14:17;;;;;;;4.15;1.90;;;;;;;23.17;60.42;100246.50;5113416;28;19908;-75
2021/08/03 00:16:47;;;;;;;3.30;1.70;;;;;;;23.22;60.36;100247.97;5113406;28;20023;-75
2021/08/03 00:19:16;;;;;;;3.40;1.52;;;;;;;23.13;60.38;100239.34;5114495;28;20039;-75
2021/08/03 00:21:46;;;;;;;3.72;1.60;;;;;;;23.22;59.90;100247.97;5113326;28;20035;-75
2021/08/03 00:24:12;;;;;;;4.43;1.52;;;;;;;23.26;59.55;100262.88;5113266;28;20035;-75
2021/08/03 00:26:43;;;;;;;3.78;1.25;;;;;;;23.17;58.94;100262.72;5113260;28;20031;-75
2021/08/03 00:29:15;;;;;;;6.53;1.90;;;;;;;23.06;59.59;100251.66;5114231;28;20023;-75
2021/08/03 00:31:49;;;;;;;3.75;2.20;;;;;;;23.02;60.10;100233.16;5130404;27;20023;-76
2021/08/03 00:34:15;;;;;;;3.80;2.00;;;;;;;22.94;60.28;100224.84;5113183;28;20059;-73
2021/08/03 00:36:43;;;;;;;4.32;1.73;;;;;;;22.79;61.18;100212.25;5114732;28;20031;-73
2021/08/03 00:39:09;;;;;;;4.28;1.85;;;;;;;22.65;62.02;100204.94;5113087;28;20051;-73
2021/08/03 00:41:42;;;;;;;4.70;2.20;;;;;;;22.55;62.49;100171.97;5112758;28;20071;-74
2021/08/03 00:44:10;;;;;;;;;;;;;;;22.36;63.46;100148.16;5114493;28;20029;-73
2021/08/03 00:46:36;;;;;;;6.22;2.63;;;;;;;22.29;63.73;100151.19;5112981;28;20001;-73
2021/08/03 00:49:04;;;;;;;5.22;2.03;;;;;;;22.23;64.68;100173.59;5112864;28;20051;-73
2021/08/03 00:51:33;;;;;;;2.53;1.70;;;;;;;22.25;63.93;100190.16;5113413;28;20371;-73
2021/08/03 00:54:01;;;;;;;8.23;2.47;;;;;;;22.27;63.56;100179.19;5112897;28;20130;-73
2021/08/03 00:56:28;;;;;;;6.60;1.92;;;;;;;22.35;63.30;100179.78;5113531;28;20513;-73
2021/08/03 00:58:57;;;;;;;4.57;1.63;;;;;;;22.33;62.53;100191.56;5112826;28;20024;-74
2021/08/03 01:01:28;;;;;;;4.85;2.17;;;;;;;22.44;61.33;100194.94;5112786;28;20118;-73
2021/08/03 01:03:53;;;;;;;5.78;2.28;;;;;;;22.37;61.60;100189.44;5114081;28;20024;-73
2021/08/03 01:06:42;;;;;;;3.65;1.85;;;;;;;22.36;61.15;100204.84;5112782;28;20024;-73
2021/08/03 01:09:26;;;;;;;4.07;2.10;;;;;;;22.36;61.17;100209.72;5112494;28;20119;-74
2021/08/03 01:12:06;;;;;;;3.65;2.00;;;;;;;22.42;61.20;100199.44;5113515;28;20058;-74
2021/08/03 01:14:47;;;;;;;2.50;1.40;;;;;;;22.41;60.82;100207.16;5113188;28;20439;-73
2021/08/03 01:17:54;;;;;;;3.30;1.95;;;;;;;22.49;60.62;100224.78;5112423;28;20477;-73
2021/08/03 01:20:29;;;;;;;2.38;1.92;;;;;;;22.57;60.31;100220.50;5098650;28;20035;-74
2021/08/03 01:23:36;;;;;;;1.65;1.40;;;;;;;22.44;60.06;100228.94;5113853;28;20028;-74
2021/08/03 01:26:17;;;;;;;4.35;1.67;;;;;;;22.41;59.96;100218.47;5112558;28;20028;-73
2021/08/03 01:28:49;;;;;;;6.43;1.40;;;;;;;22.41;59.94;100224.16;5112417;28;20027;-74
2021/08/03 01:31:33;;;;;;;4.43;1.73;;;;;;;22.40;58.99;100199.88;5112214;28;20031;-74
2021/08/03 01:34:09;;;;;;;2.28;1.48;;;;;;;22.55;58.81;100213.72;5112975;28;20023;-74
2021/08/03 01:36:38;;;;;;;3.67;2.00;;;;;;;22.41;59.64;100217.69;5113419;28;20420;-74
2021/08/03 01:39:08;;;;;;;1.63;1.33;;;;;;;22.39;59.17;100218.16;5112434;28;20030;-74
2021/08/03 01:41:38;;;;;;;4.38;1.27;;;;;;;22.41;59.38;100218.47;5129508;28;20030;-74
2021/08/03 01:44:05;;;;;;;2.53;1.45;;;;;;;22.21;59.92;100187.41;5112334;28;20031;-74
2021/08/03 01:46:35;;;;;;;2.72;1.48;;;;;;;22.38;60.35;100202.38;5112351;28;20023;-74
2021/08/03 01:49:04;;;;;;;6.28;1.85;;;;;;;22.39;60.68;100195.47;5129327;28;20023;-74
2021/08/03 01:51:31;;;;;;;9.52;1.85;;;;;;;22.48;60.99;100201.31;5112854;28;20181;-74
2021/08/03 01:54:01;;;;;;;2.33;1.73;;;;;;;22.49;60.71;100177.38;5113002;27;20027;-74
2021/08/03 01:56:34;;;;;;;7.72;1.70;;;;;;;22.61;60.87;100187.19;5117540;28;20047;-74
2021/08/03 01:59:03;;;;;;;2.42;1.83;;;;;;;22.62;60.85;100180.28;5115853;28;20027;-74
2021/08/03 02:01:34;;;;;;;3.65;1.63;;;;;;;22.59;60.76;100178.34;5116416;28;20409;-75
2021/08/03 02:04:00;;;;;;;3.20;1.55;;;;;;;22.38;61.57;100185.38;5116117;28;20061;-74
2021/08/03 02:06:30;;;;;;;5.57;1.70;;;;;;;22.18;61.61;100182.63;5116882;28;20530;-74
2021/08/03 02:09:00;;;;;;;3.28;1.50;;;;;;;22.10;62.03;100174.69;5115904;28;20023;-74
2021/08/03 02:11:29;;;;;;;4.05;1.90;;;;;;;22.08;62.20;100174.34;5115954;28;20038;-74
2021/08/03 02:13:57;;;;;;;3.25;2.05;;;;;;;22.06;62.50;100160.63;5115877;28;20023;-74
2021/08/03 02:16:24;;;;;;;3.28;1.52;;;;;;;22.22;61.45;100159.88;5117137;28;20027;-74
2021/08/03 02:18:52;;;;;;;4.82;1.70;;;;;;;22.01;62.17;100166.03;5115517;28;20074;-74
2021/08/03 02:21:23;;;;;;;3.95;1.65;;;;;;;22.06;61.47;100176.84;5115787;28;20024;-75
2021/08/03 02:23:51;;;;;;;1.40;1.30;;;;;;;21.67;61.17;100175.72;5133543;27;20363;-74
2021/08/03 02:26:20;;;;;;;3.55;1.42;;;;;;;21.70;62.20;100157.84;5117273;28;20145;-74
2021/08/03 02:28:48;;;;;;;19.05;14.48;;;;;;;21.62;62.19;100151.53;5115995;28;20097;-74
2021/08/03 02:31:22;;;;;;;47.35;34.70;;;;;;;21.59;61.35;100158.09;5116629;28;20097;-74
2021/08/03 02:34:20;;;;;;;37.13;26.50;;;;;;;21.68;60.65;100149.00;5115795;28;20571;-74
2021/08/03 02:36:51;;;;;;;7.50;4.45;;;;;;;21.48;59.05;100128.44;5115731;28;20378;-74
2021/08/03 02:39:17;;;;;;;7.03;2.30;;;;;;;21.64;58.73;100142.63;5116447;28;20023;-74
2021/08/03 02:41:45;;;;;;;3.13;1.85;;;;;;;21.56;59.01;100141.19;5115356;28;20092;-74
2021/08/03 02:44:13;;;;;;;2.15;1.65;;;;;;;21.55;59.14;100136.75;5132471;27;20062;-74
2021/08/03 02:46:40;;;;;;;3.60;1.55;;;;;;;21.46;58.88;100145.84;5116524;28;20110;-74
2021/08/03 02:49:15;;;;;;;2.80;1.38;;;;;;;21.27;59.68;100141.00;5115446;28;20034;-74
2021/08/03 02:51:41;;;;;;;4.22;1.73;;;;;;;21.21;59.93;100132.22;5116433;28;20045;-74
2021/08/03 02:54:29;;;;;;;3.83;1.65;;;;;;;21.23;61.66;100137.44;5133014;27;20121;-73
2021/08/03 02:56:57;;;;;;;7.82;3.25;;;;;;;21.19;62.15;100129.81;5115249;28;20355;-74
2021/08/03 02:59:26;;;;;;;6.82;1.83;;;;;;;21.27;62.17;100130.47;5116000;28;20032;-74
2021/08/03 03:01:54;;;;;;;3.90;2.42;;;;;;;21.22;62.80;100150.78;5116517;28;20035;-74
2021/08/03 03:04:44;;;;;;;5.03;1.65;;;;;;;21.35;61.67;100142.44;5114907;27;20031;-74
2021/08/03 03:07:18;;;;;;;4.22;2.42;;;;;;;21.27;61.83;100138.97;5114861;28;20054;-73
2021/08/03 03:09:46;;;;;;;3.88;2.20;;;;;;;21.28;62.47;100142.59;5114406;28;20111;-74
2021/08/03 03:12:12;;;;;;;4.45;2.53;;;;;;;21.14;63.38;100143.69;5132181;27;20027;-74
2021/08/03 03:14:42;;;;;;;4.65;1.98;;;;;;;21.11;63.76;100153.06;5114936;28;20118;-74
2021/08/03 03:17:12;;;;;;;4.00;2.15;;;;;;;21.17;63.85;100149.28;5131529;27;20542;-74
2021/08/03 03:19:42;;;;;;;5.35;2.63;;;;;;;21.19;64.10;100154.47;5114514;28;20044;-73
2021/08/03 03:22:14;;;;;;;2.90;1.92;;;;;;;21.28;62.62;100149.03;5115106;28;20039;-75
2021/08/03 03:24:45;;;;;;;6.07;2.72;;;;;;;21.41;60.77;100149.19;5116031;28;20051;-75
2021/08/03 03:27:15;;;;;;;4.03;1.70;;;;;;;21.43;57.85;100149.56;5131534;27;20039;-75
2021/08/03 03:29:44;;;;;;;5.45;1.90;;;;;;;21.42;56.60;100154.44;5114455;28;20027;-75
2021/08/03 03:32:12;;;;;;;1.65;1.52;;;;;;;21.40;57.04;100151.22;5115899;28;20490;-75
2021/08/03 03:34:41;;;;;;;3.38;1.88;;;;;;;21.44;58.29;100166.09;5114525;28;20019;-75
2021/08/03 03:37:10;;;;;;;6.10;2.22;;;;;;;21.40;58.27;100176.69;5131033;27;20054;-75
2021/08/03 03:39:37;;;;;;;2.53;2.10;;;;;;;21.44;58.45;100182.28;5114635;28;20373;-75
2021/08/03 03:42:05;;;;;;;2.65;1.92;;;;;;;21.49;58.38;100195.94;5115410;28;20474;-75
2021/08/03 03:44:34;;;;;;;3.78;2.30;;;;;;;21.58;58.80;100209.50;5115102;28;20019;-75
2021/08/03 03:47:22;;;;;;;5.03;3.03;;;;;;;21.68;58.77;100216.97;5114085;28;20032;-75
2021/08/03 03:49:54;;;;;;;7.15;4.60;;;;;;;21.71;58.16;100224.56;5115485;28;20462;-75
2021/08/03 03:52:26;;;;;;;8.47;5.93;;;;;;;21.69;57.41;100233.50;5115575;28;20094;-75
2021/08/03 03:54:56;;;;;;;4.20;2.45;;;;;;;21.87;55.65;100247.25;5114042;28;20420;-75
2021/08/03 03:57:24;;;;;;;6.50;2.13;;;;;;;21.95;55.41;100260.03;5113833;28;20028;-75
2021/08/03 03:59:52;;;;;;;2.55;1.60;;;;;;;21.95;56.15;100264.91;5113846;28;20501;-75
2021/08/03 04:02:20;;;;;;;7.93;2.38;;;;;;;22.02;55.53;100275.28;5115230;28;20019;-75
2021/08/03 04:04:47;;;;;;;4.63;2.60;;;;;;;21.99;55.94;100262.78;5113378;28;20042;-75
2021/08/03 04:07:18;;;;;;;4.72;2.65;;;;;;;22.02;54.00;100258.28;5115008;28;20032;-75
2021/08/03 04:09:47;;;;;;;3.13;1.90;;;;;;;22.07;53.95;100260.59;5113505;28;20485;-75
2021/08/03 04:12:15;;;;;;;2.53;1.77;;;;;;;22.03;54.42;100259.88;5131022;27;20061;-75
2021/08/03 04:14:44;;;;;;;3.45;2.05;;;;;;;22.17;53.83;100253.91;5114100;28;20024;-75
2021/08/03 04:17:10;;;;;;;3.72;1.65;;;;;;;22.18;53.91;100272.50;5112716;28;20031;-75
2021/08/03 04:19:36;;;;;;;4.32;1.85;;;;;;;22.25;53.62;100274.38;5113392;28;20028;-75
2021/08/03 04:22:01;;;;;;;5.53;2.33;;;;;;;22.18;54.00;100253.47;5113401;28;20023;-75
2021/08/03 04:24:30;;;;;;;4.88;1.70;;;;;;;22.31;55.98;100287.56;5113388;28;20042;-75
2021/08/03 04:27:01;;;;;;;2.17;1.67;;;;;;;22.40;54.79;100303.97;5113306;28;20028;-75
2021/08/03 04:29:29;;;;;;;4.05;1.80;;;;;;;22.51;54.99;100330.03;5115040;28;20027;-75
2021/08/03 04:31:55;;;;;;;4.32;2.30;;;;;;;22.54;55.00;100323.50;5113154;28;20035;-75
2021/08/03 04:34:24;;;;;;;2.85;1.65;;;;;;;22.62;54.67;100309.94;5113084;28;20528;-75
2021/08/03 04:36:53;;;;;;;3.08;2.10;;;;;;;22.56;52.91;100300.34;5114391;28;20050;-75
2021/08/03 04:39:18;;;;;;;3.05;1.50;;;;;;;22.92;52.80;100315.28;5112986;28;20019;-75
2021/08/03 04:41:47;;;;;;;5.05;1.98;;;;;;;23.23;51.82;100317.72;5112990;28;20039;-75
2021/08/03 04:44:18;;;;;;;5.20;1.75;;;;;;;23.23;50.35;100317.72;5112941;28;20034;-75
2021/08/03 04:46:44;;;;;;;8.00;3.60;;;;;;;23.19;48.60;100328.38;5112914;28;20032;-75
2021/08/03 04:49:12;;;;;;;3.97;1.83;;;;;;;22.99;49.17;100332.09;5112809;28;20089;-75
2021/08/03 04:51:40;;;;;;;4.30;2.00;;;;;;;22.84;50.58;100381.91;5113158;28;20023;-75
2021/08/03 04:54:08;;;;;;;5.07;2.00;;;;;;;22.79;51.74;100410.00;5129595;27;20115;-75
2021/08/03 04:56:36;;;;;;;6.68;3.03;;;;;;;22.80;51.86;100460.63;5112776;28;20042;-75
2021/08/03 04:59:02;;;;;;;3.78;2.53;;;;;;;22.85;49.09;100541.56;5112840;28;20028;-75
2021/08/03 05:01:28;;;;;;;5.80;2.05;;;;;;;22.74;46.75;100567.31;5095978;28;20032;-75
2021/08/03 05:03:53;;;;;;;9.98;2.65;;;;;;;22.66;47.29;100574.38;5112653;28;20031;-75
2021/08/03 05:06:22;;;;;;;3.28;1.55;;;;;;;22.55;50.25;100591.63;5112871;28;20058;-75
2021/08/03 05:08:47;;;;;;;3.92;1.65;;;;;;;22.51;52.23;100556.06;5113619;28;20478;-75
2021/08/03 05:11:13;;;;;;;5.85;2.70;;;;;;;22.49;54.27;100568.63;5112638;28;20030;-75
2021/08/03 05:13:44;;;;;;;4.68;2.45;;;;;;;22.43;54.34;100590.22;5113505;28;20035;-75
2021/08/03 05:16:13;;;;;;;6.30;2.42;;;;;;;22.55;51.03;100587.97;5112684;28;20119;-76
2021/08/03 05:18:42;;;;;;;5.28;2.38;;;;;;;22.88;48.21;100583.28;5129399;28;20055;-73
2021/08/03 05:21:12;;;;;;;7.38;4.55;;;;;;;22.54;53.18;100595.69;5112488;28;20031;-74
2021/08/03 05:23:41;;;;;;;11.20;5.47;;;;;;;22.14;56.04;100600.47;5112486;28;20038;-75
2021/08/03 05:26:06;;;;;;;9.27;3.83;;;;;;;21.73;56.91;100590.22;5113758;28;20023;-75
2021/08/03 05:28:35;;;;;;;10.13;4.97;;;;;;;21.55;58.02;100586.88;5114247;28;20489;-75
2021/08/03 05:31:06;;;;;;;7.03;4.30;;;;;;;21.40;58.00;100564.44;5116716;28;20527;-75
2021/08/03 05:33:31;;;;;;;9.55;4.10;;;;;;;21.61;58.03;100557.66;5117938;28;20358;-75
2021/08/03 05:36:02;;;;;;;7.25;3.20;;;;;;;21.83;56.96;100541.09;5133729;27;20087;-75
2021/08/03 05:38:28;;;;;;;5.25;3.45;;;;;;;21.84;57.35;100522.88;5133678;27;20054;-75
2021/08/03 05:40:59;;;;;;;12.40;4.32;;;;;;;21.66;60.76;100503.38;5116434;28;20148;-75
2021/08/03 05:43:30;;;;;;;7.30;4.22;;;;;;;21.54;63.89;100472.06;5116451;28;20027;-75
2021/08/03 05:45:56;;;;;;;13.55;4.78;;;;;;;21.44;63.99;100459.69;5116761;28;20420;-75
2021/08/03 05:48:24;;;;;;;10.02;5.07;;;;;;;21.44;64.10;100468.16;5116391;28;20035;-74
2021/08/03 05:50:53;;;;;;;14.20;4.75;;;;;;;21.60;63.79;100473.16;5116595;28;20101;-75
2021/08/03 05:53:22;;;;;;;7.32;3.88;;;;;;;21.70;64.14;100470.13;5116305;28;20031;-73
2021/08/03 05:55:53;;;;;;;8.43;3.35;;;;;;;21.87;63.77;100475.88;5118124;28;20023;-75
2021/08/03 05:58:24;;;;;;;12.13;4.90;;;;;;;21.98;63.79;100491.44;5117481;28;20023;-75
2021/08/03 06:00:55;;;;;;;7.78;5.07;;;;;;;22.12;63.52;100496.09;5116487;28;20034;-76
2021/08/03 06:03:25;;;;;;;8.38;5.00;;;;;;;22.25;63.02;100492.59;5116603;28;20035;-74
2021/08/03 06:05:55;;;;;;;19.35;5.82;;;;;;;22.36;62.79;100482.63;5116375;28;20027;-76
2021/08/03 06:08:28;;;;;;;9.25;6.22;;;;;;;22.41;62.25;100470.78;5116084;28;20103;-76
2021/08/03 06:10:58;;;;;;;10.23;6.13;;;;;;;22.43;62.20;100462.66;5099612;28;20027;-75
2021/08/03 06:13:28;;;;;;;17.55;7.15;;;;;;;22.30;61.91;100444.69;5115953;28;20039;-75
2021/08/03 06:16:06;;;;;;;15.35;8.15;;;;;;;22.29;61.35;100440.28;5116108;28;20023;-75
2021/08/03 06:18:40;;;;;;;14.63;7.50;;;;;;;22.34;61.50;100428.41;5116831;28;20048;-75
2021/08/03 06:21:11;;;;;;;;;;;;;;;22.42;61.39;100414.88;5133512;27;20047;-75
2021/08/03 06:23:41;;;;;;;20.98;8.43;;;;;;;22.45;61.37;100417.66;5115664;28;20091;-75
2021/08/03 06:26:10;;;;;;;16.67;8.88;;;;;;;22.39;61.78;100427.91;5117235;27;20034;-75
2021/08/03 06:28:39;;;;;;;16.83;8.90;;;;;;;22.47;61.76;100443.50;5116083;28;20032;-75
2021/08/03 06:31:07;;;;;;;19.23;8.13;;;;;;;22.59;61.70;100456.25;5115476;28;20019;-75
2021/08/03 06:33:33;;;;;;;15.18;8.32;;;;;;;22.78;61.52;100463.09;5133181;27;20045;-75
2021/08/03 06:36:02;;;;;;;15.40;6.60;;;;;;;22.80;61.45;100454.97;5115606;28;20466;-75
2021/08/03 06:38:30;;;;;;;12.50;6.13;;;;;;;22.87;61.39;100443.44;5132695;27;20477;-75
2021/08/03 06:41:02;;;;;;;10.07;6.85;;;;;;;22.85;61.48;100436.59;5114744;28;20474;-75
2021/08/03 06:43:29;;;;;;;12.55;6.25;;;;;;;22.99;61.63;100439.94;5115330;28;20523;-76
2021/08/03 06:46:09;;;;;;;12.63;6.35;;;;;;;23.06;61.43;100444.63;5115319;28;20026;-77
2021/08/03 06:48:46;;;;;;;16.50;6.13;;;;;;;23.08;61.66;100464.06;5132734;27;20035;-77
2021/08/03 06:51:17;;;;;;;12.45;6.22;;;;;;;23.07;61.86;100479.50;5115535;28;20039;-76
2021/08/03 06:53:45;;;;;;;10.43;5.82;;;;;;;23.06;61.80;100463.69;5115679;27;20050;-77
2021/08/03 06:56:22;;;;;;;10.57;4.95;;;;;;;23.16;61.80;100460.59;5115099;28;20118;-75
2021/08/03 06:58:56;;;;;;;13.90;5.00;;;;;;;;;;5115017;28;20494;-76
2021/08/03 07:01:54;;;;;;;8.10;4.47;;;;;;;23.38;61.47;100466.53;5114972;28;20118;-76
2021/08/03 07:04:47;;;;;;;10.23;5.28;;;;;;;23.37;62.15;100507.53;5115751;28;20138;-76
2021/08/03 07:07:13;;;;;;;10.80;4.32;;;;;;;23.43;62.24;100485.09;5116152;28;20030;-76
2021/08/03 07:09:43;;;;;;;7.72;3.70;;;;;;;23.50;61.72;100448.81;5131905;27;20031;-76
2021/08/03 07:12:14;;;;;;;9.18;4.50;;;;;;;23.24;62.31;100447.03;5114914;28;20031;-76
2021/08/03 07:14:46;;;;;;;8.30;3.45;;;;;;;23.10;63.17;100472.94;5114734;28;20031;-76
2021/08/03 07:17:19;;;;;;;6.65;3.22;;;;;;;23.25;62.62;100451.47;5114495;28;20122;-76
2021/08/03 07:26:18;;;;;;;12.32;4.47;;;;;;;23.05;63.37;100403.31;5116065;28;20051;-76
2021/08/03 07:28:49;;;;;;;11.48;4.30;;;;;;;23.05;63.28;100399.69;5114402;28;20020;-76
2021/08/03 07:31:18;;;;;;;11.55;5.50;;;;;;;22.94;63.55;100391.44;5114413;28;20049;-75
2021/08/03 07:33:44;;;;;;;13.88;6.32;;;;;;;22.81;63.45;100399.03;5131829;27;20028;-76
2021/08/03 07:36:13;;;;;;;11.77;6.85;;;;;;;22.75;63.57;100412.94;5131924;27;20024;-75
2021/08/03 07:38:49;;;;;;;18.55;8.93;;;;;;;22.74;63.15;100411.31;5131881;27;20488;-75
2021/08/03 07:41:17;;;;;;;13.52;7.13;;;;;;;22.79;63.10;100407.16;5115488;28;20020;-76
2021/08/03 07:43:48;;;;;;;22.63;8.18;;;;;;;22.92;62.44;100389.03;5114039;28;20039;-75
2021/08/03 07:46:16;;;;;;;18.50;7.28;;;;;;;22.91;62.93;100361.91;5115026;28;20020;-75
2021/08/03 07:48:50;;;;;;;18.95;8.00;;;;;;;23.00;62.90;100339.38;5114449;28;20470;-75
2021/08/03 07:51:20;;;;;;;14.48;7.32;;;;;;;23.03;63.49;100309.31;5113615;28;20023;-76
2021/08/03 07:53:47;;;;;;;15.88;6.53;;;;;;;23.15;63.32;100310.63;5131559;27;20035;-77
2021/08/03 07:56:17;;;;;;;12.43;6.68;;;;;;;23.16;64.59;100332.09;5114411;28;20429;-76
2021/08/03 07:58:45;;;;;;;16.63;7.15;;;;;;;23.13;64.72;100352.84;5131345;27;20382;-76
2021/08/03 08:01:10;;;;;;;15.90;7.53;;;;;;;22.93;64.39;100333.09;5113887;28;20035;-77
2021/08/03 08:03:39;;;;;;;14.85;6.75;;;;;;;22.99;64.00;100357.63;5114201;28;20023;-76
2021/08/03 08:06:10;;;;;;;15.25;6.85;;;;;;;22.90;64.29;100306.41;5114731;27;20030;-76
2021/08/03 08:08:38;;;;;;;12.73;7.78;;;;;;;22.84;65.21;100373.38;5113672;28;20027;-76
2021/08/03 08:11:07;;;;;;;11.68;5.45;;;;;;;22.97;60.16;100249.47;5113649;28;20050;-75
2021/08/03 08:13:37;;;;;;;13.38;6.07;;;;;;;23.28;61.93;100317.19;5130832;27;20031;-76
2021/08/03 08:16:06;;;;;;;15.25;6.88;;;;;;;22.88;65.69;100280.53;5113564;28;20016;-75
2021/08/03 08:18:32;;;;;;;8.18;3.83;;;;;;;23.13;56.92;100311.09;5113361;28;20082;-75
2021/08/03 08:21:03;;;;;;;9.65;5.00;;;;;;;23.25;57.68;100278.31;5130489;27;20456;-76
2021/08/03 08:23:34;;;;;;;14.20;4.40;;;;;;;23.88;49.69;100212.41;5113687;28;20055;-76
2021/08/03 08:26:03;;;;;;;10.55;3.97;;;;;;;24.21;48.13;100163.84;5113393;28;20034;-76
2021/08/03 08:28:29;;;;;;;5.35;2.58;;;;;;;24.55;47.26;100152.53;5113798;28;20031;-76
2021/08/03 08:30:57;;;;;;;5.97;3.08;;;;;;;24.74;47.78;100186.84;5113147;27;20041;-77
2021/08/03 08:33:26;;;;;;;8.90;3.33;;;;;;;24.84;48.78;100199.88;5113171;28;20118;-76
2021/08/03 08:35:55;;;;;;;4.75;2.60;;;;;;;24.88;49.58;100211.94;5113142;28;20066;-76
2021/08/03 08:38:26;;;;;;;11.50;3.47;;;;;;;24.97;51.08;100192.09;5113129;28;20038;-76
2021/08/03 08:40:57;;;;;;;8.02;3.17;;;;;;;24.91;49.33;100176.84;5113094;28;20122;-76
2021/08/03 08:43:26;;;;;;;6.75;4.28;;;;;;;24.97;46.39;100174.22;5113543;28;20023;-76
2021/08/03 08:45:55;;;;;;;13.02;5.40;;;;;;;25.04;47.78;100171.91;5130219;27;20032;-76
2021/08/03 08:48:24;;;;;;;10.68;4.75;;;;;;;25.16;47.79;100175.19;5112674;28;20032;-76
2021/08/03 08:50:54;;;;;;;10.60;4.63;;;;;;;25.25;46.97;100155.34;5112774;28;20019;-76
2021/08/03 08:53:23;;;;;;;10.27;5.40;;;;;;;25.40;46.33;100162.03;5112925;28;20039;-76
2021/08/03 08:55:51;;;;;;;11.20;4.32;;;;;;;25.57;45.50;100146.34;5112799;28;20030;-76
2021/08/03 08:58:17;;;;;;;9.15;4.10;;;;;;;25.60;44.47;100124.66;5112657;28;20031;-76
2021/08/03 09:00:45;;;;;;;13.38;4.70;;;;;;;25.74;44.52;100123.31;5112313;28;20027;-74
2021/08/03 09:03:12;;;;;;;9.32;3.90;;;;;;;25.90;44.15;100145.09;5112328;28;20028;-76
2021/08/03 09:05:41;;;;;;;6.78;3.88;;;;;;;25.94;43.89;100146.53;5113709;28;20024;-75
2021/08/03 09:08:09;;;;;;;7.65;3.85;;;;;;;26.00;44.08;100136.09;5113527;28;20112;-75
2021/08/03 09:10:50;;;;;;;17.73;4.68;;;;;;;26.16;43.71;100132.19;5112377;28;20542;-75
2021/08/03 09:13:21;;;;;;;9.15;3.92;;;;;;;26.29;43.15;100141.38;5113861;28;20428;-74
2021/08/03 09:15:59;;;;;;;8.20;3.30;;;;;;;26.38;41.28;100143.47;5129548;28;20030;-76
2021/08/03 09:18:39;;;;;;;9.68;4.15;;;;;;;26.53;42.55;100177.91;5129079;28;20130;-76
2021/08/03 09:21:16;;;;;;;8.93;3.40;;;;;;;26.61;43.04;100188.53;5112805;28;20492;-77
2021/08/03 09:24:22;;;;;;;8.70;3.58;;;;;;;26.68;41.56;100192.34;5129521;28;20055;-76
2021/08/03 09:26:49;;;;;;;7.10;2.70;;;;;;;26.77;39.73;100190.28;5098567;28;20036;-76
2021/08/03 09:29:21;;;;;;;6.47;3.15;;;;;;;26.88;41.60;100218.38;5129807;28;20206;-76
2021/08/03 09:31:56;;;;;;;13.32;4.15;;;;;;;27.00;41.94;100233.75;5112084;28;20020;-81
2021/08/03 09:34:23;;;;;;;5.03;2.47;;;;;;;27.09;42.13;100240.28;5129737;28;20096;-79
2021/08/03 09:36:58;;;;;;;7.95;2.22;;;;;;;27.27;39.61;100235.84;5129683;28;20115;-80
2021/08/03 09:39:37;;;;;;;7.13;2.13;;;;;;;28.27;35.86;100234.03;5114028;28;20031;-79
2021/08/03 09:42:07;;;;;;;5.10;1.98;;;;;;;28.93;34.52;100271.19;5112592;28;20023;-79
2021/08/03 09:44:37;;;;;;;8.48;2.10;;;;;;;29.58;33.63;100240.78;5112618;28;20377;-79
2021/08/03 09:47:05;;;;;;;6.97;2.17;;;;;;;30.12;34.15;100275.09;5112010;28;20063;-79
2021/08/03 09:49:41;;;;;;;6.50;1.83;;;;;;;30.33;34.39;100298.91;5113243;28;20039;-76
2021/08/03 09:52:12;;;;;;;9.63;2.40;;;;;;;30.36;35.49;100292.16;5129340;28;20113;-78
2021/08/03 09:54:44;;;;;;;5.32;1.98;;;;;;;30.37;36.77;100299.50;5112065;28;20072;-77
2021/08/03 09:57:23;;;;;;;5.35;1.80;;;;;;;30.07;39.31;100296.63;5113777;28;20019;-80
2021/08/03 09:59:50;;;;;;;9.63;5.45;;;;;;;29.85;40.04;100310.59;5112503;28;20359;-81
2021/08/03 10:02:23;;;;;;;10.35;2.42;;;;;;;29.60;40.39;100312.72;5129203;28;20027;-80
2021/08/03 10:04:54;;;;;;;6.55;2.58;;;;;;;29.62;40.90;100304.44;5113098;28;20028;-78
2021/08/03 10:07:20;;;;;;;2.85;1.48;;;;;;;29.43;41.45;100288.66;5113039;28;20031;-80
2021/08/03 10:09:50;;;;;;;11.77;2.58;;;;;;;29.54;41.97;100302.44;5128908;28;20076;-80
2021/08/03 10:12:17;;;;;;;4.25;2.17;;;;;;;29.32;41.38;100302.75;5129099;28;20119;-81
2021/08/03 10:14:45;;;;;;;3.72;1.70;;;;;;;29.31;41.28;100309.78;5128984;27;20200;-80
2021/08/03 10:17:13;;;;;;;4.30;1.88;;;;;;;29.22;41.12;100285.63;5116970;28;20035;-79
2021/08/03 10:19:39;;;;;;;6.43;1.77;;;;;;;29.27;41.17;100261.25;5117324;28;20015;-80
2021/08/03 10:22:28;;;;;;;4.47;2.40;;;;;;;29.38;40.94;100266.41;5116510;28;20070;-79
2021/08/03 10:25:02;;;;;;;6.60;2.20;;;;;;;29.66;40.87;100287.81;5115340;28;20027;-80
2021/08/03 10:27:50;;;;;;;7.68;2.22;;;;;;;29.60;40.51;100271.78;5115073;28;20031;-77
2021/08/03 10:30:28;;;;;;;8.07;2.20;;;;;;;29.63;41.14;100277.34;5115063;28;20503;-77
2021/08/03 10:32:59;;;;;;;7.13;1.67;;;;;;;29.73;40.50;100275.97;5115657;28;20035;-78
2021/08/03 10:35:49;;;;;;;5.95;1.75;;;;;;;29.72;41.29;100280.13;5117133;28;20571;-80
2021/08/03 10:38:28;;;;;;;4.50;1.73;;;;;;;29.96;40.62;100277.16;5115367;28;20044;-78
2021/08/03 10:41:02;;;;;;;8.95;2.22;;;;;;;29.93;40.92;100277.34;5116549;28;20474;-77
2021/08/03 10:43:33;;;;;;;4.85;1.88;;;;;;;29.94;41.31;100294.06;5117166;28;20035;-78
2021/08/03 10:46:08;;;;;;;5.63;1.80;;;;;;;29.90;40.94;100278.34;5116005;28;20079;-77
2021/08/03 10:48:40;;;;;;;3.78;2.08;;;;;;;30.10;41.15;100292.78;5115182;28;20030;-78
2021/08/03 10:51:15;;;;;;;2.50;1.63;;;;;;;30.07;41.47;100296.63;5115073;28;20034;-78
2021/08/03 10:53:53;;;;;;;10.15;2.10;;;;;;;30.19;41.79;100329.19;5115124;28;20110;-77
2021/08/03 10:56:19;;;;;;;8.55;1.95;;;;;;;29.89;41.94;100329.19;5114973;28;20047;-77
2021/08/03 10:58:45;;;;;;;6.38;1.85;;;;;;;29.80;42.27;100337.09;5132181;27;20028;-79
2021/08/03 11:01:30;;;;;;;6.63;2.15;;;;;;;29.67;42.29;100312.34;5114774;28;20085;-79
2021/08/03 11:03:56;;;;;;;6.43;1.92;;;;;;;29.62;42.90;100335.97;5113943;28;20068;-80
2021/08/03 11:06:21;;;;;;;7.50;2.17;;;;;;;29.59;42.17;100322.63;5114819;28;20031;-80
2021/08/03 11:08:48;;;;;;;3.63;1.52;;;;;;;29.70;42.03;100340.03;5114792;28;20467;-80
2021/08/03 11:11:29;;;;;;;8.10;1.77;;;;;;;29.58;42.09;100292.38;5116378;28;20096;-80
2021/08/03 11:14:04;;;;;;;5.75;2.00;;;;;;;29.81;41.87;100293.56;5132105;27;20023;-80
2021/08/03 11:16:30;;;;;;;6.57;2.13;;;;;;;30.02;41.20;100285.84;5115619;28;20027;-81
2021/08/03 11:18:58;;;;;;;8.38;2.28;;;;;;;30.17;40.94;100297.34;5114126;28;20043;-80
2021/08/03 11:21:26;;;;;;;10.75;2.65;;;;;;;30.16;41.13;100313.78;5115704;28;20020;-80
2021/08/03 11:24:09;;;;;;;2.75;1.50;;;;;;;30.16;41.41;100325.25;5114414;28;20028;-80
2021/08/03 11:26:37;;;;;;;6.68;1.73;;;;;;;29.91;41.69;100332.34;5115664;27;20363;-81
2021/08/03 11:29:05;;;;;;;7.95;1.92;;;;;;;29.78;41.00;100354.00;5114920;28;20034;-80
2021/08/03 11:31:58;;;;;;;3.78;1.60;;;;;;;29.58;40.17;100375.50;5115230;28;20102;-80
2021/08/03 11:34:42;;;;;;;10.13;2.00;;;;;;;29.26;40.60;100371.41;5115748;28;20107;-80
2021/08/03 11:37:18;;;;;;;4.78;1.52;;;;;;;29.15;42.23;100331.84;5115927;28;20032;-80
2021/08/03 11:39:49;;;;;;;7.43;1.83;;;;;;;29.71;42.67;100393.22;5114333;28;20465;-80
2021/08/03 11:42:20;;;;;;;13.43;2.00;;;;;;;29.81;42.00;100393.16;5116047;28;20110;-83
2021/08/03 11:45:05;;;;;;;5.97;2.03;;;;;;;29.77;41.69;100395.41;5097896;28;20034;-81
2021/08/03 11:47:49;;;;;;;4.47;1.90;;;;;;;30.08;41.00;100381.41;5112271;27;20028;-81
2021/08/03 11:50:27;;;;;;;5.78;1.80;;;;;;;29.98;41.39;100389.31;5115469;27;20019;-81